createdAt,value
2018-04-07T00:00:24.264Z,45.36
2018-04-07T00:02:53.259Z,44.79
2018-04-07T00:05:23.181Z,44.85
2018-04-07T00:07:53.322Z,44.66
2018-04-07T00:10:24.107Z,44.39
2018-04-07T00:12:53.199Z,43.36
2018-04-07T00:15:22.261Z,42.95
2018-04-07T00:17:52.035Z,42.81
2018-04-07T00:20:21.266Z,42.56
2018-04-07T00:22:51.250Z,41.95
2018-04-07T00:25:20.186Z,41.44
2018-04-07T00:27:49.142Z,40.89
2018-04-07T00:30:18.885Z,40.52
2018-04-07T00:32:48.934Z,40.19
2018-04-07T00:35:18.275Z,39.49
2018-04-07T00:37:47.474Z,38.81
2018-04-07T00:40:16.667Z,38.73
2018-04-07T00:42:46.353Z,38.03
2018-04-07T00:45:15.371Z,37.84
2018-04-07T00:47:45.958Z,37.38
2018-04-07T00:50:14.972Z,37.53
2018-04-07T00:52:56.008Z,37.25
2018-04-07T00:55:25.075Z,37.29
2018-04-07T00:57:54.115Z,37.10
2018-04-07T01:00:25.792Z,37.01
2018-04-07T01:02:55.460Z,36.74
2018-04-07T01:05:24.955Z,36.42
2018-04-07T01:07:55.774Z,36.22
2018-04-07T01:10:25.927Z,36.43
2018-04-07T01:12:55.896Z,36.76
2018-04-07T01:15:25.939Z,37.01
2018-04-07T01:17:54.926Z,36.82
2018-04-07T01:20:24.122Z,37.15
2018-04-07T01:22:55.853Z,37.34
2018-04-07T01:25:24.876Z,37.40
2018-04-07T01:27:54.077Z,37.21
2018-04-07T01:30:23.276Z,37.18
2018-04-07T01:32:53.194Z,37.34
2018-04-07T01:35:22.236Z,36.93
2018-04-07T01:37:53.650Z,36.81
2018-04-07T01:40:22.935Z,36.71
2018-04-07T01:42:51.963Z,36.90
2018-04-07T01:45:22.752Z,36.86
2018-04-07T01:48:03.713Z,37.26
2018-04-07T01:50:32.831Z,37.12
2018-04-07T01:53:02.760Z,36.92
2018-04-07T01:55:31.804Z,37.28
2018-04-07T01:58:02.421Z,37.20
2018-04-07T02:00:31.491Z,37.23
2018-04-07T02:03:00.675Z,37.49
2018-04-07T02:05:30.635Z,37.25
2018-04-07T02:08:01.542Z,37.72
2018-04-07T02:10:30.629Z,38.18
2018-04-07T02:13:01.673Z,38.35
2018-04-07T02:15:30.743Z,38.55
2018-04-07T02:17:59.969Z,38.41
2018-04-07T02:20:29.205Z,38.31
2018-04-07T02:22:58.361Z,38.30
2018-04-07T02:25:27.545Z,38.27
2018-04-07T02:27:56.612Z,37.31
2018-04-07T02:30:26.592Z,37.36
2018-04-07T02:32:55.558Z,37.23
2018-04-07T02:35:24.768Z,36.79
2018-04-07T02:37:54.822Z,36.75
2018-04-07T02:40:24.328Z,36.67
2018-04-07T02:42:55.911Z,36.60
2018-04-07T02:45:25.931Z,36.81
2018-04-07T02:47:55.099Z,37.15
2018-04-07T02:50:26.578Z,36.69
2018-04-07T02:52:55.790Z,36.63
2018-04-07T02:55:24.886Z,36.62
2018-04-07T02:57:55.757Z,37.31
2018-04-07T03:00:24.761Z,37.46
2018-04-07T03:02:54.760Z,37.26
2018-04-07T03:05:24.251Z,38.17
2018-04-07T03:07:54.031Z,38.21
2018-04-07T03:10:23.106Z,38.08
2018-04-07T03:12:55.550Z,38.52
2018-04-07T03:15:26.517Z,38.46
2018-04-07T03:20:30.701Z,38.15
2018-04-07T03:23:04.525Z,37.80
2018-04-07T03:25:34.425Z,37.52
2018-04-07T03:28:03.471Z,37.70
2018-04-07T03:33:08.081Z,36.52
2018-04-07T03:35:37.798Z,35.86
2018-04-07T03:38:06.830Z,36.15
2018-04-07T03:40:36.485Z,35.35
2018-04-07T03:43:05.684Z,34.70
2018-04-07T03:45:35.434Z,34.54
2018-04-07T03:48:04.652Z,34.75
2018-04-07T03:50:33.733Z,35.31
2018-04-07T03:53:03.801Z,35.33
2018-04-07T03:55:32.863Z,35.72
2018-04-07T03:58:02.753Z,36.17
2018-04-07T04:00:32.543Z,37.30
2018-04-07T04:03:01.534Z,38.20
2018-04-07T04:05:30.638Z,39.43
2018-04-07T04:08:00.648Z,40.82
2018-04-07T04:10:29.735Z,41.66
2018-04-07T04:12:58.727Z,42.00
2018-04-07T04:18:01.639Z,42.28
2018-04-07T04:20:30.666Z,42.01
2018-04-07T04:22:59.737Z,42.06
2018-04-07T04:25:28.660Z,42.04
2018-04-07T04:27:58.644Z,42.04
2018-04-07T04:30:27.830Z,42.03
2018-04-07T04:32:58.066Z,41.83
2018-04-07T04:35:27.625Z,41.87
2018-04-07T04:37:57.591Z,41.40
2018-04-07T04:40:26.594Z,41.51
2018-04-07T04:42:55.785Z,41.94
2018-04-07T04:45:24.984Z,42.60
2018-04-07T04:47:54.015Z,42.74
2018-04-07T04:50:23.011Z,42.38
2018-04-07T04:52:53.883Z,42.65
2018-04-07T04:55:22.849Z,43.38
2018-04-07T04:57:51.937Z,42.07
2018-04-07T05:00:21.603Z,43.18
2018-04-07T05:02:50.738Z,42.57
2018-04-07T05:05:20.727Z,42.54
2018-04-07T05:07:49.818Z,42.85
2018-04-07T05:10:19.635Z,43.19
2018-04-07T05:12:50.268Z,43.05
2018-04-07T05:17:53.878Z,43.56
2018-04-07T05:20:23.806Z,44.49
2018-04-07T05:22:54.850Z,43.81
2018-04-07T05:25:23.836Z,44.25
2018-04-07T05:27:54.502Z,44.73
2018-04-07T05:30:25.136Z,44.13
2018-04-07T05:32:54.929Z,44.51
2018-04-07T05:35:26.512Z,44.37
2018-04-07T05:37:56.628Z,44.46
2018-04-07T05:40:25.893Z,44.58
2018-04-07T05:42:55.840Z,44.36
2018-04-07T05:45:24.911Z,44.44
2018-04-07T05:47:54.005Z,44.41
2018-04-07T05:52:59.833Z,43.79
2018-04-07T05:55:29.075Z,43.80
2018-04-07T05:57:59.052Z,43.91
2018-04-07T06:00:28.190Z,43.24
2018-04-07T06:02:57.280Z,43.32
2018-04-07T06:05:27.122Z,43.24
2018-04-07T06:07:57.576Z,43.16
2018-04-07T06:10:27.167Z,43.01
2018-04-07T06:12:56.260Z,42.93
2018-04-07T06:15:26.078Z,42.81
2018-04-07T06:17:55.073Z,42.71
2018-04-07T06:20:24.860Z,41.98
2018-04-07T06:22:55.214Z,41.52
2018-04-07T06:25:24.471Z,41.60
2018-04-07T06:27:56.162Z,41.90
2018-04-07T06:30:25.279Z,41.86
2018-04-07T06:32:54.256Z,41.00
2018-04-07T06:35:24.847Z,40.16
2018-04-07T06:37:53.711Z,39.91
2018-04-07T06:40:22.883Z,39.93
2018-04-07T06:42:52.527Z,39.48
2018-04-07T06:45:21.548Z,38.93
2018-04-07T06:47:56.583Z,38.31
2018-04-07T06:50:29.490Z,39.44
2018-04-07T06:53:00.275Z,38.36
2018-04-07T06:55:29.306Z,38.93
2018-04-07T06:57:58.201Z,37.74
2018-04-07T07:00:27.316Z,36.51
2018-04-07T07:02:56.280Z,36.72
2018-04-07T07:05:25.547Z,35.28
2018-04-07T07:07:55.201Z,35.38
2018-04-07T07:10:25.050Z,35.76
2018-04-07T07:12:54.186Z,35.67
2018-04-07T07:15:23.601Z,35.53
2018-04-07T07:17:52.872Z,36.26
2018-04-07T07:20:21.870Z,36.16
2018-04-07T07:22:51.076Z,35.66
2018-04-07T07:25:21.035Z,35.28
2018-04-07T07:27:51.553Z,34.52
2018-04-07T07:30:20.452Z,35.58
2018-04-07T07:32:49.517Z,36.22
2018-04-07T07:35:19.172Z,35.69
2018-04-07T07:37:48.210Z,37.76
2018-04-07T07:40:18.184Z,37.78
2018-04-07T07:42:48.808Z,36.96
2018-04-07T07:45:17.992Z,36.10
2018-04-07T07:47:47.192Z,37.14
2018-04-07T07:50:16.256Z,37.37
2018-04-07T07:52:45.176Z,36.01
2018-04-07T07:55:15.364Z,35.48
2018-04-07T08:00:19.592Z,36.10
2018-04-07T08:02:49.568Z,36.70
2018-04-07T08:05:18.657Z,36.92
2018-04-07T08:07:48.175Z,37.74
2018-04-07T08:10:18.135Z,37.76
2018-04-07T08:12:48.769Z,38.71
2018-04-07T08:15:17.897Z,38.71
2018-04-07T08:17:47.669Z,38.42
2018-04-07T08:22:52.057Z,39.07
2018-04-07T08:25:21.522Z,36.17
2018-04-07T08:27:50.727Z,36.95
2018-04-07T08:30:19.816Z,38.59
2018-04-07T08:32:48.919Z,37.47
2018-04-07T08:35:18.727Z,37.40
2018-04-07T08:37:48.248Z,37.53
2018-04-07T08:40:17.940Z,38.97
2018-04-07T08:42:48.119Z,40.02
2018-04-07T08:45:17.160Z,40.37
2018-04-07T08:47:46.034Z,40.99
2018-04-07T08:50:17.761Z,40.75
2018-04-07T08:52:47.008Z,41.01
2018-04-07T08:55:16.313Z,41.20
2018-04-07T09:00:20.955Z,41.04
2018-04-07T09:02:50.068Z,42.92
2018-04-07T09:05:19.032Z,41.63
2018-04-07T09:07:48.328Z,40.48
2018-04-07T09:10:18.616Z,40.71
2018-04-07T09:12:48.597Z,40.06
2018-04-07T09:15:21.688Z,42.17
2018-04-07T09:17:51.813Z,39.94
2018-04-07T09:20:21.097Z,39.79
2018-04-07T09:22:51.628Z,39.55
2018-04-07T09:25:21.040Z,39.77
2018-04-07T09:27:52.869Z,39.96
2018-04-07T09:30:21.761Z,39.28
2018-04-07T09:32:50.729Z,39.19
2018-04-07T09:35:20.901Z,39.73
2018-04-07T09:37:50.508Z,40.33
2018-04-07T09:40:20.231Z,40.79
2018-04-07T09:42:49.177Z,41.00
2018-04-07T09:45:19.376Z,41.21
2018-04-07T09:47:48.326Z,42.30
2018-04-07T09:52:55.691Z,42.32
2018-04-07T09:55:24.876Z,41.21
2018-04-07T09:57:54.579Z,40.94
2018-04-07T10:00:25.480Z,40.95
2018-04-07T10:03:01.545Z,40.49
2018-04-07T10:05:36.880Z,41.43
2018-04-07T10:08:06.884Z,42.29
2018-04-07T10:10:36.103Z,43.20
2018-04-07T10:13:05.409Z,43.07
2018-04-07T10:15:34.494Z,43.56
2018-04-07T10:18:03.493Z,44.23
2018-04-07T10:20:35.558Z,44.88
2018-04-07T10:23:04.495Z,44.07
2018-04-07T10:25:34.225Z,43.59
2018-04-07T10:28:03.570Z,43.14
2018-04-07T10:30:32.573Z,42.25
2018-04-07T10:33:02.282Z,41.40
2018-04-07T10:35:32.338Z,41.94
2018-04-07T10:38:03.546Z,41.63
2018-04-07T10:40:32.642Z,42.34
2018-04-07T10:43:01.834Z,41.21
2018-04-07T10:45:30.931Z,41.62
2018-04-07T10:48:01.663Z,41.16
2018-04-07T10:50:31.528Z,42.11
2018-04-07T10:53:00.717Z,42.00
2018-04-07T10:55:31.310Z,41.63
2018-04-07T10:58:00.496Z,41.87
2018-04-07T11:00:30.453Z,42.06
2018-04-07T11:02:59.552Z,42.19
2018-04-07T11:05:28.531Z,42.24
2018-04-07T11:07:58.452Z,41.90
2018-04-07T11:10:27.499Z,41.34
2018-04-07T11:12:57.231Z,41.75
2018-04-07T11:15:26.277Z,41.77
2018-04-07T11:17:57.166Z,42.14
2018-04-07T11:20:26.265Z,43.15
2018-04-07T11:22:55.364Z,43.59
2018-04-07T11:25:24.370Z,43.90
2018-04-07T11:27:54.711Z,44.11
2018-04-07T11:30:24.283Z,43.87
2018-04-07T11:32:54.239Z,43.87
2018-04-07T11:35:23.399Z,43.83
2018-04-07T11:37:53.217Z,44.23
2018-04-07T11:40:24.084Z,43.89
2018-04-07T11:42:53.141Z,44.27
2018-04-07T11:45:22.245Z,44.38
2018-04-07T11:47:51.482Z,43.69
2018-04-07T11:50:21.451Z,43.93
2018-04-07T11:52:50.650Z,43.69
2018-04-07T11:55:19.939Z,43.78
2018-04-07T11:57:49.368Z,44.13
2018-04-07T12:00:18.338Z,43.72
2018-04-07T12:02:47.253Z,43.73
2018-04-07T12:05:17.275Z,43.53
2018-04-07T12:07:47.408Z,43.44
2018-04-07T12:10:16.665Z,43.80
2018-04-07T12:12:49.718Z,43.34
2018-04-07T12:15:18.898Z,43.05
2018-04-07T12:17:48.968Z,43.15
2018-04-07T12:20:18.913Z,43.46
2018-04-07T12:22:48.108Z,43.26
2018-04-07T12:25:17.214Z,42.10
2018-04-07T12:27:47.163Z,42.57
2018-04-07T12:30:16.317Z,42.60
2018-04-07T12:32:45.625Z,42.67
2018-04-07T12:35:14.826Z,43.18
2018-04-07T12:37:43.754Z,42.95
2018-04-07T12:40:12.811Z,42.79
2018-04-07T12:42:43.060Z,41.03
2018-04-07T12:45:12.375Z,42.20
2018-04-07T12:47:41.474Z,42.61
2018-04-07T12:50:11.350Z,42.39
2018-04-07T12:52:41.987Z,42.58
2018-04-07T12:55:11.074Z,42.63
2018-04-07T12:57:41.010Z,42.58
2018-04-07T13:00:10.240Z,43.13
2018-04-07T13:02:43.132Z,44.33
2018-04-07T13:05:12.991Z,44.85
2018-04-07T13:07:42.928Z,45.23
2018-04-07T13:10:13.942Z,45.79
2018-04-07T13:12:44.068Z,45.61
2018-04-07T13:15:13.203Z,45.75
2018-04-07T13:17:43.035Z,45.81
2018-04-07T13:20:17.853Z,45.96
2018-04-07T13:22:47.259Z,46.73
2018-04-07T13:25:16.454Z,46.95
2018-04-07T13:27:45.763Z,47.36
2018-04-07T13:30:16.354Z,47.98
2018-04-07T13:32:46.384Z,47.61
2018-04-07T13:35:15.474Z,48.24
2018-04-07T13:37:44.522Z,48.54
2018-04-07T13:40:13.454Z,48.56
2018-04-07T13:42:42.386Z,49.87
2018-04-07T13:45:11.607Z,49.76
2018-04-07T13:47:40.584Z,49.88
2018-04-07T13:50:09.986Z,50.76
2018-04-07T13:52:41.770Z,50.52
2018-04-07T13:55:18.051Z,51.64
2018-04-07T13:57:50.261Z,51.45
2018-04-07T14:00:19.264Z,51.96
2018-04-07T14:02:48.277Z,51.51
2018-04-07T14:05:19.959Z,51.89
2018-04-07T14:07:49.097Z,52.68
2018-04-07T14:10:18.894Z,53.97
2018-04-07T14:12:48.750Z,53.33
2018-04-07T14:15:17.736Z,53.45
2018-04-07T14:17:46.828Z,54.00
2018-04-07T14:20:17.790Z,54.87
2018-04-07T14:22:46.861Z,55.10
2018-04-07T14:25:16.178Z,55.46
2018-04-07T14:27:45.326Z,55.73
2018-04-07T14:30:16.478Z,55.86
2018-04-07T14:32:45.465Z,55.83
2018-04-07T14:35:16.183Z,55.54
2018-04-07T14:37:47.277Z,55.61
2018-04-07T14:40:17.242Z,55.41
2018-04-07T14:42:46.475Z,55.33
2018-04-07T14:45:15.488Z,56.09
2018-04-07T14:47:44.585Z,56.25
2018-04-07T14:50:14.513Z,56.23
2018-04-07T14:52:45.642Z,56.83
2018-04-07T14:55:14.850Z,57.01
2018-04-07T14:57:44.251Z,56.88
2018-04-07T15:00:14.097Z,56.29
2018-04-07T15:02:44.044Z,56.17
2018-04-07T15:05:13.384Z,56.64
2018-04-07T15:07:42.809Z,57.39
2018-04-07T15:10:12.805Z,57.31
2018-04-07T15:12:42.580Z,57.19
2018-04-07T15:15:13.470Z,57.53
2018-04-07T15:17:42.412Z,57.69
2018-04-07T15:20:11.498Z,57.42
2018-04-07T15:22:40.556Z,56.89
2018-04-07T15:25:10.356Z,57.19
2018-04-07T15:27:40.960Z,57.10
2018-04-07T15:30:11.686Z,57.66
2018-04-07T15:32:40.688Z,57.49
2018-04-07T15:35:09.826Z,57.95
2018-04-07T15:37:38.872Z,57.65
2018-04-07T15:40:08.974Z,58.05
2018-04-07T15:42:39.047Z,57.94
2018-04-07T15:45:08.366Z,58.06
2018-04-07T15:47:38.334Z,57.90
2018-04-07T15:50:07.626Z,58.00
2018-04-07T15:52:36.880Z,58.11
2018-04-07T15:55:05.928Z,57.64
2018-04-07T15:57:35.840Z,57.62
2018-04-07T16:00:05.757Z,57.68
2018-04-07T16:02:36.457Z,57.48
2018-04-07T16:05:05.588Z,57.47
2018-04-07T16:07:35.907Z,57.45
2018-04-07T16:10:05.324Z,57.11
2018-04-07T16:12:35.452Z,56.75
2018-04-07T16:15:04.842Z,56.68
2018-04-07T16:17:33.945Z,56.07
2018-04-07T16:20:03.330Z,55.88
2018-04-07T16:22:34.199Z,56.01
2018-04-07T16:25:03.928Z,56.18
2018-04-07T16:27:33.815Z,55.99
2018-04-07T16:30:05.733Z,55.92
2018-04-07T16:32:35.515Z,55.64
2018-04-07T16:35:05.427Z,55.43
2018-04-07T16:37:34.796Z,55.02
2018-04-07T16:40:09.658Z,55.12
2018-04-07T16:42:39.932Z,55.01
2018-04-07T16:45:08.995Z,55.31
2018-04-07T16:47:38.071Z,55.20
2018-04-07T16:50:08.441Z,55.04
2018-04-07T16:52:39.520Z,54.82
2018-04-07T16:55:11.431Z,54.57
2018-04-07T16:57:41.607Z,54.63
2018-04-07T17:00:11.745Z,54.98
2018-04-07T17:02:41.882Z,55.25
2018-04-07T17:05:11.097Z,55.94
2018-04-07T17:07:40.280Z,56.41
2018-04-07T17:10:10.161Z,56.66
2018-04-07T17:12:39.393Z,56.77
2018-04-07T17:15:08.351Z,56.87
2018-04-07T17:17:38.141Z,56.77
2018-04-07T17:20:07.154Z,56.89
2018-04-07T17:22:36.325Z,57.09
2018-04-07T17:25:06.242Z,56.89
2018-04-07T17:27:35.299Z,57.30
2018-04-07T17:30:04.462Z,57.50
2018-04-07T17:32:33.627Z,57.99
2018-04-07T17:35:02.569Z,58.37
2018-04-07T17:37:31.481Z,58.21
2018-04-07T17:40:00.872Z,58.19
2018-04-07T17:42:29.886Z,58.53
2018-04-07T17:44:58.834Z,58.41
2018-04-07T17:47:27.881Z,58.73
2018-04-07T17:49:56.934Z,58.29
2018-04-07T17:52:26.925Z,58.31
2018-04-07T17:54:56.797Z,58.82
2018-04-07T17:57:31.695Z,58.41
2018-04-07T18:00:05.185Z,58.37
2018-04-07T18:02:34.316Z,58.06
2018-04-07T18:05:04.309Z,57.75
2018-04-07T18:07:33.507Z,57.69
2018-04-07T18:10:02.483Z,57.49
2018-04-07T18:12:31.826Z,57.43
2018-04-07T18:15:01.661Z,57.30
2018-04-07T18:17:30.946Z,57.51
2018-04-07T18:20:00.116Z,57.63
2018-04-07T18:22:29.444Z,57.74
2018-04-07T18:24:58.665Z,58.04
2018-04-07T18:27:28.666Z,58.10
2018-04-07T18:29:59.599Z,57.89
2018-04-07T18:32:28.634Z,58.17
2018-04-07T18:34:57.899Z,58.14
2018-04-07T18:37:28.945Z,57.96
2018-04-07T18:39:59.199Z,57.60
2018-04-07T18:42:28.224Z,57.68
2018-04-07T18:44:59.600Z,57.67
2018-04-07T18:47:29.328Z,57.66
2018-04-07T18:52:34.275Z,57.66
2018-04-07T18:55:03.275Z,57.70
2018-04-07T18:57:34.519Z,57.51
2018-04-07T19:00:04.389Z,57.34
2018-04-07T19:02:33.483Z,57.28
2018-04-07T19:05:03.609Z,57.24
2018-04-07T19:07:33.186Z,57.09
2018-04-07T19:10:02.358Z,56.92
2018-04-07T19:12:32.381Z,56.96
2018-04-07T19:15:01.369Z,56.97
2018-04-07T19:17:31.220Z,57.08
2018-04-07T19:20:00.443Z,56.89
2018-04-07T19:22:30.049Z,56.84
2018-04-07T19:24:59.339Z,56.71
2018-04-07T19:27:28.418Z,56.74
2018-04-07T19:29:57.702Z,56.58
2018-04-07T19:32:26.898Z,56.49
2018-04-07T19:34:55.989Z,56.06
2018-04-07T19:37:24.985Z,55.97
2018-04-07T19:39:54.127Z,55.98
2018-04-07T19:42:24.922Z,55.98
2018-04-07T19:44:54.424Z,55.88
2018-04-07T19:47:24.780Z,55.65
2018-04-07T19:49:57.933Z,55.69
2018-04-07T19:52:26.952Z,55.45
2018-04-07T19:54:56.796Z,55.32
2018-04-07T19:57:25.803Z,55.30
2018-04-07T19:59:54.946Z,55.25
2018-04-07T20:02:25.005Z,55.08
2018-04-07T20:04:55.775Z,54.88
2018-04-07T20:07:32.881Z,54.82
2018-04-07T20:10:02.224Z,54.70
2018-04-07T20:12:31.126Z,54.83
2018-04-07T20:15:00.161Z,54.88
2018-04-07T20:17:29.289Z,54.67
2018-04-07T20:19:58.251Z,54.65
2018-04-07T20:22:27.378Z,54.60
2018-04-07T20:24:57.456Z,54.57
2018-04-07T20:27:27.299Z,54.77
2018-04-07T20:29:57.116Z,54.63
2018-04-07T20:32:26.398Z,54.13
2018-04-07T20:34:55.453Z,53.92
2018-04-07T20:37:24.586Z,53.93
2018-04-07T20:39:54.514Z,53.51
2018-04-07T20:42:28.715Z,53.60
2018-04-07T20:44:57.914Z,53.33
2018-04-07T20:47:26.914Z,53.17
2018-04-07T20:49:56.066Z,53.49
2018-04-07T20:52:25.202Z,53.60
2018-04-07T20:54:55.062Z,53.51
2018-04-07T20:57:24.215Z,53.44
2018-04-07T20:59:54.171Z,53.54
2018-04-07T21:02:23.230Z,53.63
2018-04-07T21:04:55.850Z,53.75
2018-04-07T21:07:24.975Z,53.80
2018-04-07T21:09:54.064Z,53.97
2018-04-07T21:12:23.207Z,54.31
2018-04-07T21:14:52.293Z,54.53
2018-04-07T21:17:22.863Z,54.64
2018-04-07T21:19:53.879Z,55.03
2018-04-07T21:22:22.864Z,55.58
2018-04-07T21:24:51.801Z,55.88
2018-04-07T21:27:24.002Z,55.81
2018-04-07T21:29:53.174Z,55.77
2018-04-07T21:32:22.472Z,55.93
2018-04-07T21:34:51.751Z,56.14
2018-04-07T21:37:21.743Z,56.43
2018-04-07T21:39:50.735Z,56.44
2018-04-07T21:42:19.794Z,56.27
2018-04-07T21:44:48.866Z,56.27
2018-04-07T21:47:17.822Z,56.03
2018-04-07T21:49:48.145Z,56.52
2018-04-07T21:52:17.160Z,56.85
2018-04-07T21:54:46.310Z,57.33
2018-04-07T21:59:53.054Z,57.62
2018-04-07T22:02:22.434Z,58.26
2018-04-07T22:04:51.559Z,57.84
2018-04-07T22:07:21.481Z,57.92
2018-04-07T22:09:51.029Z,57.44
2018-04-07T22:12:20.989Z,55.03
2018-04-07T22:14:50.070Z,54.88
2018-04-07T22:17:19.995Z,54.15
2018-04-07T22:19:52.122Z,53.51
2018-04-07T22:22:21.097Z,53.33
2018-04-07T22:24:50.373Z,52.84
2018-04-07T22:27:20.354Z,52.32
2018-04-07T22:29:51.093Z,53.23
2018-04-07T22:32:21.017Z,53.83
2018-04-07T22:34:50.923Z,52.98
2018-04-07T22:37:22.479Z,52.96
2018-04-07T22:39:51.783Z,52.14
2018-04-07T22:42:20.913Z,51.41
2018-04-07T22:44:50.171Z,51.52
2018-04-07T22:47:19.928Z,50.68
2018-04-07T22:49:49.136Z,50.07
2018-04-07T22:52:18.156Z,50.03
2018-04-07T22:54:47.326Z,49.54
2018-04-07T22:57:18.118Z,49.32
2018-04-07T22:59:47.373Z,48.63
2018-04-07T23:02:18.129Z,48.45
2018-04-07T23:04:47.196Z,48.45
2018-04-07T23:07:17.072Z,48.82
2018-04-07T23:09:47.800Z,49.15
2018-04-07T23:12:16.935Z,48.71
2018-04-07T23:14:46.226Z,47.53
2018-04-07T23:17:17.453Z,48.51
2018-04-07T23:19:46.616Z,48.71
2018-04-07T23:22:17.519Z,48.47
2018-04-07T23:24:49.285Z,48.78
2018-04-07T23:27:19.513Z,48.61
2018-04-07T23:29:48.535Z,48.22
2018-04-07T23:32:23.732Z,47.77
2018-04-07T23:34:52.779Z,47.93
2018-04-07T23:37:22.681Z,46.96
2018-04-07T23:39:52.234Z,47.19
2018-04-07T23:42:21.339Z,46.33
2018-04-07T23:44:50.393Z,45.81
2018-04-07T23:47:20.408Z,45.31
2018-04-07T23:49:49.442Z,44.67
2018-04-07T23:52:18.490Z,46.05
2018-04-07T23:54:47.724Z,47.00
2018-04-07T23:57:17.821Z,46.98
2018-04-07T23:59:47.207Z,47.04
